MSC Nuria — 3ESE2 — position and weather

sailwx.info

Track history (hours):
 
Tides and Currents Weather Stations Pressure Air Temp Water Temp Dewpoint Dewpoint Depression Visibility Wind Speed Wind Dir Waves Ship Positions

MSC Nuria

Last reported at 2018-May-14 18:09 UTC. Time now 2018-May-26 08:02 UTC.
Position N 09°11' W 079°51'.
Warning: this ship's position is 11 days out of date.

Length 275 m; draft 10 m.

Type: Ship (hazmat cat A). MMSI: 370272977.

Date/timePositionNaut miles runAvg speedWind from/ knotsBaromVisibWave heightAir tempDewpointWater temp
2018-May-14 18:09N 09°11' W 079°51'213.2
2018-May-14 17:58N 09°12' W 079°54'3 7.4
2018-May-14 17:30N 09°15' W 079°55'2 3.0
2018-May-14 17:00N 09°16' W 079°55'0 0.4
2018-May-14 16:30N 09°16' W 079°55'0 0.3
2018-May-14 15:58N 09°17' W 079°55'0 0.5
2018-May-14 15:30N 09°17' W 079°55'0 0.8
2018-May-14 14:59N 09°17' W 079°55'2 3.3
2018-May-14 14:29N 09°19' W 079°55'2 5.2
2018-May-14 14:00N 09°21' W 079°55'2 3.2
2018-May-14 13:30N 09°23' W 079°55'4 7.6
2018-May-14 13:00N 09°27' W 079°55'5 9.5
2018-May-14 12:30N 09°31' W 079°52'1 1.3
2018-May-14 11:52N 09°31' W 079°52'0 0.5
2018-May-14 11:30N 09°30' W 079°52'0 0.6
2018-May-14 10:49N 09°30' W 079°52'0 0.7
2018-May-14 10:30N 09°30' W 079°52'0 0.9
2018-May-14 10:00N 09°30' W 079°52'1 1.1
2018-May-14 09:30N 09°30' W 079°53'2 3.6
2018-May-14 09:00N 09°31' W 079°54'4 8.3
2018-May-14 08:30N 09°35' W 079°52'  
2018-May-11 11:07N 26°32' W 078°46'0 0.0
2018-May-11 09:36N 26°32' W 078°46'0 0.0
2018-May-11 09:26N 26°32' W 078°46'39 1.0
2018-May-09 20:26N 26°11' W 079°22'2 5.3
2018-May-09 20:00N 26°09' W 079°25'3 5.4
2018-May-09 19:31N 26°08' W 079°27'3 6.5
2018-May-09 19:01N 26°05' W 079°29'6 7.3
2018-May-09 18:12N 25°59' W 079°29'2 7.4
2018-May-09 17:58N 25°57' W 079°29'4 7.6
2018-May-09 17:31N 25°54' W 079°30'5 9.4
2018-May-09 17:01N 25°49' W 079°30'510.9
2018-May-09 16:31N 25°44' W 079°31'610.9
2018-May-09 16:00N 25°38' W 079°31'510.7
2018-May-09 15:30N 25°33' W 079°31'  
Track history (hours):
 
Tides and Currents Weather Stations Pressure Air Temp Water Temp Dewpoint Dewpoint Depression Visibility Wind Speed Wind Dir Waves Ship Positions

MSC Nuria

Last reported at 2018-May-14 18:09 UTC. Time now 2018-May-26 08:02 UTC.
Position N 09°11' W 079°51'.
Warning: this ship's position is 11 days out of date.

Length 275 m; draft 10 m.

Type: Ship (hazmat cat A). MMSI: 370272977.

Date/timePositionNaut miles runAvg speedWind from/ knotsBaromVisibWave heightAir tempDewpointWater temp
2018-May-14 18:09N 09°11' W 079°51'213.2
2018-May-14 17:58N 09°12' W 079°54'3 7.4
2018-May-14 17:30N 09°15' W 079°55'2 3.0
2018-May-14 17:00N 09°16' W 079°55'0 0.4
2018-May-14 16:30N 09°16' W 079°55'0 0.3
2018-May-14 15:58N 09°17' W 079°55'0 0.5
2018-May-14 15:30N 09°17' W 079°55'0 0.8
2018-May-14 14:59N 09°17' W 079°55'2 3.3
2018-May-14 14:29N 09°19' W 079°55'2 5.2
2018-May-14 14:00N 09°21' W 079°55'2 3.2
2018-May-14 13:30N 09°23' W 079°55'4 7.6
2018-May-14 13:00N 09°27' W 079°55'5 9.5
2018-May-14 12:30N 09°31' W 079°52'1 1.3
2018-May-14 11:52N 09°31' W 079°52'0 0.5
2018-May-14 11:30N 09°30' W 079°52'0 0.6
2018-May-14 10:49N 09°30' W 079°52'0 0.7
2018-May-14 10:30N 09°30' W 079°52'0 0.9
2018-May-14 10:00N 09°30' W 079°52'1 1.1
2018-May-14 09:30N 09°30' W 079°53'2 3.6
2018-May-14 09:00N 09°31' W 079°54'4 8.3
2018-May-14 08:30N 09°35' W 079°52'  
2018-May-11 11:07N 26°32' W 078°46'0 0.0
2018-May-11 09:36N 26°32' W 078°46'0 0.0
2018-May-11 09:26N 26°32' W 078°46'39 1.0
2018-May-09 20:26N 26°11' W 079°22'2 5.3
2018-May-09 20:00N 26°09' W 079°25'3 5.4
2018-May-09 19:31N 26°08' W 079°27'3 6.5
2018-May-09 19:01N 26°05' W 079°29'6 7.3
2018-May-09 18:12N 25°59' W 079°29'2 7.4
2018-May-09 17:58N 25°57' W 079°29'4 7.6
2018-May-09 17:31N 25°54' W 079°30'5 9.4
2018-May-09 17:01N 25°49' W 079°30'510.9
2018-May-09 16:31N 25°44' W 079°31'610.9
2018-May-09 16:00N 25°38' W 079°31'510.7
2018-May-09 15:30N 25°33' W 079°31'  

Dump ship's entire track history